VIGY (57) - B3

Date : 06/04/2013
Distance : 3,700 km

Place Nom Licence Catégorie Club Temps min/km CN à J-60 Points Différence Nouveau CN
1 GUINOT Véronique 15015 D50 2108BO 0:36:31 9'52 5246 4964 -282 5212
2 CAMPBELL Jane 17406 D55 7807IF 0:40:35 10'58 4318 4466 +148 4344
3 RORA Isabelle 7703 D50 7719IF 0:45:23 12'15 3626 3994 +368 3770
4 CORDEIRO MENDES Myriam 9235 D50 6008PI 0:45:24 12'16 3691 3992 +301 3728
5 ARMBRUSTER Marie 2952 D50 2508FC 0:45:59 12'25 4039 3942 -97 3990
6 RENNEL Gea 26193 D55 6799AL 0:46:04 12'27 4505 3935 -570 4505
7 BASSET Sylvie 9933 D50 6911RA 0:46:21 12'31 4020 3911 -109 4033
8 PERE Catherine 2730 D50 2105BO 0:46:40 12'36 4162 3884 -278 4413
9 ROBERT Martine 1087 D60 7004FC 0:47:16 12'46 3203 3835 +632 3638
10 FRANTZ Francoise 6886 D65 2904BR 0:48:52 13'12 3386 3709 +323 3618
11 BOUVERET Michelle 12102 D55 2508FC 0:50:55 13'45 3792 3560 -232 3797
12 OUDIN M-Reine 7574 D60 6804AL 0:51:25 13'53 3203 3525 +322 3291
13 DIEUDONNE Madeleine 1380 D65 7808IF 0:51:41 13'58 3965 3507 -458 3930
14 TAUZIN-LAMY Christine 89 D50 7004FC 0:52:01 14'03 3459 3485 +26 3466
15 GREVET Claudie 15296 D50 6806AL 0:55:14 14'55 2988 3282 +294 3071
16 ABISSE Gisele 701 D70 2508FC 0:56:12 15'11 2835 3225 +390 3300
17 CHALOPIN Catherine 3674 D60 2105BO 0:56:13 15'11 3781 3224 -557 3814
18 EGGLI Margrit 27392 D65 6803AL 0:59:21 16'02 3054 3563
19 RICHARD Nicole 14245 D65 0207PI 1:00:06 16'14 3218 3016 -202 3243
20 LAMINETTE M-Odile 17201 D50 5907NO 1:00:19 16'18 2949 3005 +56 3018
21 CABON Monique 96 D60 2904BR 1:00:55 16'27 2692 2975 +283 2929
22 MOULIERE M-Bernadette 2888 D70 0207PI 1:01:40 16'40 3485 2939 -546 3414
23 GERBEAUX Marie-jeanne 22417 D60 6205NO 1:02:57 17'00 3180 2879 -301 3233
24 FISCHER M-Dominique 340 D50 6803AL 1:03:26 17'08 2202 2857 +655 2399
25 SCHELCHER Ginette 20409 D50 6806AL 1:05:14 17'37 3766 2779 -987 3900
26 JOLY Mauricette 310 D50 6803AL 1:05:49 17'47 3349 2754 -595 3303
27 BAUDOIN Annie 16634 D65 0615AZ 1:07:11 18'09 2605 2698 +93 2770
28 VERDIN Christine 15274 D50 7109BO 1:15:46 20'28 2687 2392 -295 2611
29 SUTTER Odile 2387 D55 6806AL 1:18:02 21'05 2819 2323 -496 2919
30 SIMONET Marie 931 D65 7707IF 1:18:49 21'18 2694 2300 -394 2723
31 LUDEWIG-JAMES Carol 15894 D70 5907NO 1:25:41 23'09 1949 2115 +166 2000
32 TORZ-DRUON Magali 10081 D60 5906NO 1:28:31 23'55 2480 2048 -432 2472
33 LECOYER Annick 2885 D60 0207PI 1:31:22 24'41 2874 1984 -890 2760
34 THIEBAULT M-Paule 4490 D60 6804AL 1:47:49 29'08 2014 1681 -333 2062
FISCHER Christiane 27627 D60 6803AL pm None 0 2742